createdAt,value
2017-12-06T00:00:55.310Z,19.6
2017-12-06T00:10:55.257Z,19.4
2017-12-06T00:20:55.561Z,17.3
2017-12-06T00:30:55.510Z,17.9
2017-12-06T00:40:55.491Z,15.5
2017-12-06T00:50:55.393Z,16.8
2017-12-06T01:00:55.355Z,16.6
2017-12-06T01:10:55.270Z,17.0
2017-12-06T01:20:55.697Z,16.3
2017-12-06T01:30:55.890Z,17.0
2017-12-06T01:40:56.048Z,15.3
2017-12-06T01:50:55.950Z,16.0
2017-12-06T02:00:56.060Z,15.6
2017-12-06T02:10:56.252Z,14.9
2017-12-06T02:20:55.634Z,14.3
2017-12-06T02:30:55.960Z,15.3
2017-12-06T02:40:56.272Z,14.1
2017-12-06T02:50:55.868Z,12.1
2017-12-06T03:00:56.164Z,13.1
2017-12-06T03:10:56.505Z,13.1
2017-12-06T03:20:56.371Z,13.8
2017-12-06T03:30:55.737Z,12.8
2017-12-06T03:40:56.144Z,12.6
2017-12-06T03:50:56.677Z,13.1
2017-12-06T04:00:55.903Z,12.8
2017-12-06T04:10:56.000Z,10.3
2017-12-06T04:20:56.403Z,10.4
2017-12-06T04:30:55.319Z,11.2
2017-12-06T04:40:55.641Z,12.3
2017-12-06T04:50:55.546Z,11.2
2017-12-06T05:00:55.705Z,12.0
2017-12-06T05:10:57.612Z,11.7
2017-12-06T05:20:55.638Z,13.4
2017-12-06T05:30:55.228Z,14.3
2017-12-06T05:40:56.562Z,12.8
2017-12-06T05:50:56.131Z,13.6
2017-12-06T06:00:56.018Z,15.0
2017-12-06T06:10:55.890Z,14.1
2017-12-06T06:20:55.888Z,16.3
2017-12-06T06:30:56.202Z,15.7
2017-12-06T06:40:56.130Z,17.1
2017-12-06T06:50:57.099Z,17.2
2017-12-06T07:00:56.092Z,16.7
2017-12-06T07:10:56.197Z,17.7
2017-12-06T07:20:55.403Z,20.3
2017-12-06T07:30:55.517Z,18.9
2017-12-06T07:40:55.398Z,20.5
2017-12-06T07:50:55.570Z,19.9
2017-12-06T08:00:55.864Z,15.0
2017-12-06T08:10:56.235Z,19.5
2017-12-06T08:20:55.247Z,18.0
2017-12-06T08:30:56.073Z,18.6
2017-12-06T08:40:56.084Z,20.0
2017-12-06T08:50:56.509Z,16.8
2017-12-06T09:00:55.489Z,19.2
2017-12-06T09:10:55.383Z,19.1
2017-12-06T09:20:55.287Z,19.4
2017-12-06T09:30:55.951Z,20.8
2017-12-06T09:40:55.773Z,22.0
2017-12-06T09:50:55.660Z,20.7
2017-12-06T10:00:55.798Z,24.6
2017-12-06T10:10:56.081Z,22.3
2017-12-06T10:20:56.332Z,24.1
2017-12-06T10:30:55.747Z,22.0
2017-12-06T10:40:56.641Z,24.1
2017-12-06T10:50:55.607Z,23.7
2017-12-06T11:00:55.768Z,23.6
2017-12-06T11:10:55.670Z,19.1
2017-12-06T11:20:56.243Z,21.3
2017-12-06T11:30:55.829Z,21.4
2017-12-06T11:40:55.957Z,19.2
2017-12-06T11:50:56.030Z,22.3
2017-12-06T12:00:56.731Z,20.5
2017-12-06T12:10:56.091Z,21.1
2017-12-06T12:20:56.437Z,19.2
2017-12-06T12:30:55.462Z,21.9
2017-12-06T12:40:55.390Z,21.2
2017-12-06T12:50:55.893Z,21.3
2017-12-06T13:00:55.827Z,21.5
2017-12-06T13:10:56.002Z,20.3
2017-12-06T13:20:56.640Z,21.7
2017-12-06T13:35:10.327Z,19.4
2017-12-06T13:41:19.452Z,20.1
2017-12-06T13:50:55.652Z,19.9
2017-12-06T14:00:55.594Z,18.6
2017-12-06T14:10:55.500Z,17.3
2017-12-06T14:20:55.771Z,21.0
2017-12-06T14:30:55.782Z,19.5
2017-12-06T14:40:55.669Z,24.3
2017-12-06T14:50:55.390Z,19.2
2017-12-06T15:00:55.786Z,22.8
2017-12-06T15:10:55.990Z,23.5
2017-12-06T15:20:56.107Z,21.1
2017-12-06T15:30:55.828Z,20.7
2017-12-06T15:40:55.961Z,23.2
2017-12-06T15:50:55.893Z,24.9
2017-12-06T16:00:56.017Z,26.0
2017-12-06T16:10:55.733Z,26.3
2017-12-06T16:20:55.700Z,27.4
2017-12-06T16:30:55.376Z,27.5
2017-12-06T16:40:55.122Z,27.9
2017-12-06T16:50:56.099Z,27.2
2017-12-06T17:00:55.866Z,28.0
2017-12-06T17:10:56.293Z,27.8
2017-12-06T17:20:55.452Z,28.8
2017-12-06T17:30:55.212Z,28.3
2017-12-06T17:40:55.925Z,25.9
2017-12-06T17:50:55.627Z,30.0
2017-12-06T18:00:55.893Z,23.6
2017-12-06T18:10:55.574Z,29.0
2017-12-06T18:20:55.385Z,27.5
2017-12-06T18:30:55.336Z,29.1
2017-12-06T18:40:56.432Z,29.5
2017-12-06T18:50:55.765Z,30.5
2017-12-06T19:00:55.751Z,29.9
2017-12-06T19:11:00.498Z,27.7
2017-12-06T19:20:55.338Z,30.6
2017-12-06T19:30:56.058Z,28.9
2017-12-06T19:40:56.499Z,34.1
2017-12-06T19:50:55.190Z,32.3
2017-12-06T20:00:56.914Z,28.5
2017-12-06T20:10:55.719Z,29.0
2017-12-06T20:20:55.667Z,30.0
2017-12-06T20:30:55.533Z,32.2
2017-12-06T20:40:55.215Z,27.1
2017-12-06T20:50:56.513Z,31.7
2017-12-06T21:00:55.225Z,28.2
2017-12-06T21:10:56.424Z,29.0
2017-12-06T21:20:55.233Z,26.3
2017-12-06T21:30:56.066Z,30.1
2017-12-06T21:40:55.697Z,29.3
2017-12-06T21:50:55.430Z,26.9
2017-12-06T22:00:55.501Z,26.0
2017-12-06T22:10:55.507Z,24.0
2017-12-06T22:20:55.338Z,24.5
2017-12-06T22:30:56.258Z,26.0
2017-12-06T22:40:56.366Z,27.8
2017-12-06T22:50:56.207Z,24.0
2017-12-06T23:00:55.904Z,22.5
2017-12-06T23:10:55.942Z,23.0
2017-12-06T23:20:56.493Z,21.4
2017-12-06T23:30:55.337Z,21.8
2017-12-06T23:40:56.524Z,20.0
2017-12-06T23:50:55.496Z,19.4
